Raeren, Belgium
Current Conditions -  °F | °C
As of 6:25 AM on Monday 26 Jan 2015 (Local Time) from EBLB Reporting Station
Overcast Overcast  
Wind Chill: 26°   Ceiling: 200
Heat Index: 32°   Visibility: 0.34mi
Dew Point: 32°   Wind: 7mph
Humidity: 100%   Direction: 220°SW
Pressure: 30.18"   Gusts: NA
Location:  50.67°N, 6.12°E
Report Text: EBLB 260525Z AUTO 22006KT 0550 VV002/// M00/M00 Q1022 RED
Loading
Personal Weather Stations






























Interactive Weather Map New forecast layout! Learn more

10-Day Weather Forecast

Advertisements
Track Severe Weather on mobile